sensor_id;sensor_type;location;lat;lon;timestamp;pressure;altitude;pressure_sealevel;temperature;humidity
57791;BME280;43621;51.798;21.588;2023-03-13T00:00:58;99468.08;;;1.81;58.10
57791;BME280;43621;51.798;21.588;2023-03-13T00:05:00;99480.67;;;1.78;58.08
57791;BME280;43621;51.798;21.588;2023-03-13T00:09:04;99472.92;;;1.78;58.23
57791;BME280;43621;51.798;21.588;2023-03-13T00:13:07;99450.85;;;1.79;58.30
57791;BME280;43621;51.798;21.588;2023-03-13T00:17:09;99457.80;;;1.78;58.29
57791;BME280;43621;51.798;21.588;2023-03-13T00:21:11;99466.98;;;1.80;58.36
57791;BME280;43621;51.798;21.588;2023-03-13T00:25:13;99461.27;;;1.80;58.48
57791;BME280;43621;51.798;21.588;2023-03-13T00:29:15;99451.16;;;1.79;58.39
57791;BME280;43621;51.798;21.588;2023-03-13T00:33:17;99443.66;;;1.78;58.37
57791;BME280;43621;51.798;21.588;2023-03-13T00:37:19;99439.41;;;1.80;58.53
57791;BME280;43621;51.798;21.588;2023-03-13T00:41:24;99432.94;;;1.82;58.49
57791;BME280;43621;51.798;21.588;2023-03-13T00:45:26;99420.30;;;1.81;58.57
57791;BME280;43621;51.798;21.588;2023-03-13T00:49:28;99410.89;;;1.77;58.56
57791;BME280;43621;51.798;21.588;2023-03-13T00:53:31;99408.95;;;1.72;58.57
57791;BME280;43621;51.798;21.588;2023-03-13T00:57:33;99417.69;;;1.73;58.69
57791;BME280;43621;51.798;21.588;2023-03-13T01:01:38;99416.16;;;1.75;58.71
57791;BME280;43621;51.798;21.588;2023-03-13T01:05:39;99418.70;;;1.76;58.72
57791;BME280;43621;51.798;21.588;2023-03-13T01:09:41;99415.07;;;1.79;58.79
57791;BME280;43621;51.798;21.588;2023-03-13T01:13:43;99409.13;;;1.83;58.81
57791;BME280;43621;51.798;21.588;2023-03-13T01:17:45;99411.35;;;1.88;58.80
57791;BME280;43621;51.798;21.588;2023-03-13T01:21:47;99414.22;;;1.95;58.86
57791;BME280;43621;51.798;21.588;2023-03-13T01:25:49;99409.88;;;2.00;58.85
57791;BME280;43621;51.798;21.588;2023-03-13T01:29:51;99407.95;;;2.06;58.81
57791;BME280;43621;51.798;21.588;2023-03-13T01:33:55;99408.66;;;2.11;58.75
57791;BME280;43621;51.798;21.588;2023-03-13T01:37:58;99407.51;;;2.15;58.77
57791;BME280;43621;51.798;21.588;2023-03-13T01:42:00;99409.41;;;2.18;58.77
57791;BME280;43621;51.798;21.588;2023-03-13T01:50:08;99402.10;;;2.19;58.74
57791;BME280;43621;51.798;21.588;2023-03-13T01:58:30;99399.60;;;2.23;58.98
57791;BME280;43621;51.798;21.588;2023-03-13T02:02:33;99399.59;;;2.23;59.02
57791;BME280;43621;51.798;21.588;2023-03-13T02:06:38;99398.30;;;2.19;58.97
57791;BME280;43621;51.798;21.588;2023-03-13T02:11:09;99394.14;;;2.17;59.14
57791;BME280;43621;51.798;21.588;2023-03-13T02:28:20;99378.89;;;2.21;59.53
57791;BME280;43621;51.798;21.588;2023-03-13T02:32:22;99378.98;;;2.24;59.61
57791;BME280;43621;51.798;21.588;2023-03-13T02:36:26;99373.61;;;2.28;59.74
57791;BME280;43621;51.798;21.588;2023-03-13T02:40:33;99370.02;;;2.30;59.78
57791;BME280;43621;51.798;21.588;2023-03-13T02:44:40;99371.11;;;2.32;59.85
57791;BME280;43621;51.798;21.588;2023-03-13T02:48:45;99373.73;;;2.34;59.91
57791;BME280;43621;51.798;21.588;2023-03-13T02:52:56;99373.96;;;2.33;59.88
57791;BME280;43621;51.798;21.588;2023-03-13T02:57:02;99368.80;;;2.28;59.86
57791;BME280;43621;51.798;21.588;2023-03-13T03:01:04;99370.05;;;2.24;59.95
57791;BME280;43621;51.798;21.588;2023-03-13T03:05:10;99377.64;;;2.24;60.03
57791;BME280;43621;51.798;21.588;2023-03-13T03:09:13;99371.97;;;2.24;60.13
57791;BME280;43621;51.798;21.588;2023-03-13T03:13:14;99364.02;;;2.24;60.21
57791;BME280;43621;51.798;21.588;2023-03-13T03:17:16;99352.52;;;2.24;60.39
57791;BME280;43621;51.798;21.588;2023-03-13T03:21:18;99354.64;;;2.26;60.44
57791;BME280;43621;51.798;21.588;2023-03-13T03:25:21;99349.31;;;2.28;60.53
57791;BME280;43621;51.798;21.588;2023-03-13T03:29:23;99348.60;;;2.28;60.49
57791;BME280;43621;51.798;21.588;2023-03-13T03:33:25;99344.82;;;2.28;60.71
57791;BME280;43621;51.798;21.588;2023-03-13T03:37:27;99345.57;;;2.30;60.87
57791;BME280;43621;51.798;21.588;2023-03-13T03:41:29;99346.90;;;2.33;60.88
57791;BME280;43621;51.798;21.588;2023-03-13T03:45:31;99347.33;;;2.35;60.78
57791;BME280;43621;51.798;21.588;2023-03-13T03:49:33;99347.39;;;2.36;60.86
57791;BME280;43621;51.798;21.588;2023-03-13T03:53:35;99340.27;;;2.37;60.87
57791;BME280;43621;51.798;21.588;2023-03-13T03:57:37;99344.95;;;2.39;60.88
57791;BME280;43621;51.798;21.588;2023-03-13T04:01:39;99345.50;;;2.41;61.04
57791;BME280;43621;51.798;21.588;2023-03-13T04:05:41;99347.56;;;2.44;61.05
57791;BME280;43621;51.798;21.588;2023-03-13T04:09:43;99348.13;;;2.43;60.98
57791;BME280;43621;51.798;21.588;2023-03-13T04:13:45;99347.59;;;2.43;60.96
57791;BME280;43621;51.798;21.588;2023-03-13T04:17:47;99341.23;;;2.43;61.04
57791;BME280;43621;51.798;21.588;2023-03-13T04:21:49;99338.80;;;2.41;60.98
57791;BME280;43621;51.798;21.588;2023-03-13T04:25:51;99335.38;;;2.41;60.92
57791;BME280;43621;51.798;21.588;2023-03-13T04:29:53;99324.77;;;2.39;61.06
57791;BME280;43621;51.798;21.588;2023-03-13T04:33:55;99320.16;;;2.42;61.16
57791;BME280;43621;51.798;21.588;2023-03-13T04:37:57;99325.85;;;2.46;61.22
57791;BME280;43621;51.798;21.588;2023-03-13T04:41:59;99326.87;;;2.49;61.21
57791;BME280;43621;51.798;21.588;2023-03-13T04:46:01;99322.23;;;2.51;61.35
57791;BME280;43621;51.798;21.588;2023-03-13T04:50:03;99320.19;;;2.51;61.51
57791;BME280;43621;51.798;21.588;2023-03-13T04:54:06;99314.63;;;2.49;61.58
57791;BME280;43621;51.798;21.588;2023-03-13T04:58:07;99310.14;;;2.47;61.82
57791;BME280;43621;51.798;21.588;2023-03-13T05:02:12;99309.73;;;2.48;62.02
57791;BME280;43621;51.798;21.588;2023-03-13T05:06:14;99305.80;;;2.50;62.47
57791;BME280;43621;51.798;21.588;2023-03-13T05:10:16;99299.86;;;2.53;62.48
57791;BME280;43621;51.798;21.588;2023-03-13T05:14:18;99293.67;;;2.58;62.86
57791;BME280;43621;51.798;21.588;2023-03-13T05:18:20;99288.30;;;2.56;62.99
57791;BME280;43621;51.798;21.588;2023-03-13T05:22:22;99285.10;;;2.53;63.61
57791;BME280;43621;51.798;21.588;2023-03-13T05:26:24;99280.82;;;2.45;64.15
57791;BME280;43621;51.798;21.588;2023-03-13T05:30:26;99279.05;;;2.41;64.27
57791;BME280;43621;51.798;21.588;2023-03-13T05:34:28;99283.36;;;2.43;64.40
57791;BME280;43621;51.798;21.588;2023-03-13T05:38:30;99290.98;;;2.52;64.17
57791;BME280;43621;51.798;21.588;2023-03-13T05:42:32;99290.47;;;2.60;64.83
57791;BME280;43621;51.798;21.588;2023-03-13T05:46:33;99292.27;;;2.61;64.86
57791;BME280;43621;51.798;21.588;2023-03-13T05:50:35;99292.67;;;2.63;65.22
57791;BME280;43621;51.798;21.588;2023-03-13T05:54:37;99292.19;;;2.63;65.65
57791;BME280;43621;51.798;21.588;2023-03-13T05:58:39;99288.23;;;2.63;65.56
57791;BME280;43621;51.798;21.588;2023-03-13T06:02:42;99287.23;;;2.62;65.69
57791;BME280;43621;51.798;21.588;2023-03-13T06:06:45;99295.70;;;2.64;65.66
57791;BME280;43621;51.798;21.588;2023-03-13T06:10:47;99298.02;;;2.68;65.94
57791;BME280;43621;51.798;21.588;2023-03-13T06:14:49;99295.68;;;2.69;66.04
57791;BME280;43621;51.798;21.588;2023-03-13T06:18:51;99297.11;;;2.71;65.98
57791;BME280;43621;51.798;21.588;2023-03-13T06:22:53;99296.83;;;2.75;65.89
57791;BME280;43621;51.798;21.588;2023-03-13T06:26:55;99297.64;;;2.80;66.03
57791;BME280;43621;51.798;21.588;2023-03-13T06:31:04;99290.58;;;2.83;66.49
57791;BME280;43621;51.798;21.588;2023-03-13T06:35:07;99278.56;;;2.89;68.08
57791;BME280;43621;51.798;21.588;2023-03-13T06:39:10;99268.77;;;3.06;68.48
57791;BME280;43621;51.798;21.588;2023-03-13T06:43:12;99270.01;;;3.17;68.13
57791;BME280;43621;51.798;21.588;2023-03-13T06:47:14;99273.14;;;3.27;67.74
57791;BME280;43621;51.798;21.588;2023-03-13T06:51:18;99267.52;;;3.35;67.22
57791;BME280;43621;51.798;21.588;2023-03-13T06:55:21;99262.92;;;3.46;66.97
57791;BME280;43621;51.798;21.588;2023-03-13T06:59:23;99266.23;;;3.60;67.12
57791;BME280;43621;51.798;21.588;2023-03-13T07:03:24;99265.64;;;3.70;67.17
57791;BME280;43621;51.798;21.588;2023-03-13T07:07:26;99261.39;;;3.85;67.23
57791;BME280;43621;51.798;21.588;2023-03-13T07:11:30;99262.50;;;3.95;67.38
57791;BME280;43621;51.798;21.588;2023-03-13T07:15:32;99263.86;;;4.00;67.19
57791;BME280;43621;51.798;21.588;2023-03-13T07:19:34;99255.75;;;4.07;67.24
57791;BME280;43621;51.798;21.588;2023-03-13T07:23:37;99256.22;;;4.21;67.20
57791;BME280;43621;51.798;21.588;2023-03-13T07:27:39;99254.90;;;4.36;67.09
57791;BME280;43621;51.798;21.588;2023-03-13T07:31:40;99248.17;;;4.51;67.18
57791;BME280;43621;51.798;21.588;2023-03-13T07:35:50;99243.00;;;4.60;66.98
57791;BME280;43621;51.798;21.588;2023-03-13T07:39:52;99239.35;;;4.71;67.05
57791;BME280;43621;51.798;21.588;2023-03-13T07:43:54;99224.28;;;4.80;66.92
57791;BME280;43621;51.798;21.588;2023-03-13T07:47:56;99219.80;;;4.95;66.94
57791;BME280;43621;51.798;21.588;2023-03-13T07:51:58;99215.40;;;5.07;67.17
57791;BME280;43621;51.798;21.588;2023-03-13T07:56:03;99215.34;;;5.20;66.95
57791;BME280;43621;51.798;21.588;2023-03-13T08:00:06;99205.08;;;5.31;66.80
57791;BME280;43621;51.798;21.588;2023-03-13T08:04:12;99204.27;;;5.52;66.90
57791;BME280;43621;51.798;21.588;2023-03-13T08:08:14;99211.30;;;5.71;66.68
57791;BME280;43621;51.798;21.588;2023-03-13T08:12:16;99209.02;;;6.00;66.50
57791;BME280;43621;51.798;21.588;2023-03-13T08:16:22;99206.77;;;6.13;66.22
57791;BME280;43621;51.798;21.588;2023-03-13T08:20:25;99209.04;;;6.28;66.23
57791;BME280;43621;51.798;21.588;2023-03-13T08:24:26;99208.83;;;6.45;66.01
57791;BME280;43621;51.798;21.588;2023-03-13T08:28:28;99203.88;;;6.50;65.89
57791;BME280;43621;51.798;21.588;2023-03-13T08:32:35;99201.59;;;6.55;65.83
57791;BME280;43621;51.798;21.588;2023-03-13T08:36:37;99193.67;;;6.66;65.74
57791;BME280;43621;51.798;21.588;2023-03-13T08:40:39;99196.98;;;6.85;65.65
57791;BME280;43621;51.798;21.588;2023-03-13T08:44:41;99191.46;;;7.01;65.46
57791;BME280;43621;51.798;21.588;2023-03-13T08:48:43;99190.98;;;7.19;65.23
57791;BME280;43621;51.798;21.588;2023-03-13T08:52:45;99189.80;;;7.36;65.15
57791;BME280;43621;51.798;21.588;2023-03-13T08:56:47;99191.08;;;7.54;65.08
57791;BME280;43621;51.798;21.588;2023-03-13T09:00:49;99184.84;;;7.88;64.77
57791;BME280;43621;51.798;21.588;2023-03-13T09:04:51;99173.41;;;8.49;64.49
57791;BME280;43621;51.798;21.588;2023-03-13T09:08:55;99165.77;;;9.80;63.75
57791;BME280;43621;51.798;21.588;2023-03-13T09:12:58;99159.79;;;11.46;61.69
57791;BME280;43621;51.798;21.588;2023-03-13T09:17:00;99151.53;;;12.16;60.86
57791;BME280;43621;51.798;21.588;2023-03-13T09:21:05;99145.20;;;13.18;58.20
57791;BME280;43621;51.798;21.588;2023-03-13T09:25:09;99141.02;;;14.15;56.69
57791;BME280;43621;51.798;21.588;2023-03-13T09:29:10;99132.27;;;15.59;54.81
57791;BME280;43621;51.798;21.588;2023-03-13T09:33:12;99124.60;;;17.27;52.10
57791;BME280;43621;51.798;21.588;2023-03-13T09:37:14;99124.04;;;17.97;49.84
57791;BME280;43621;51.798;21.588;2023-03-13T09:49:38;99110.10;;;16.51;47.36
57791;BME280;43621;51.798;21.588;2023-03-13T10:01:49;99097.73;;;14.92;49.25
57791;BME280;43621;51.798;21.588;2023-03-13T10:05:54;99091.55;;;14.57;49.56
57791;BME280;43621;51.798;21.588;2023-03-13T10:09:59;99084.65;;;14.05;49.92
57791;BME280;43621;51.798;21.588;2023-03-13T10:14:14;99071.97;;;14.18;50.27
57791;BME280;43621;51.798;21.588;2023-03-13T10:18:20;99073.34;;;14.44;50.36
57791;BME280;43621;51.798;21.588;2023-03-13T10:22:26;99071.73;;;14.54;50.40
57791;BME280;43621;51.798;21.588;2023-03-13T10:26:35;99062.34;;;14.39;49.42
57791;BME280;43621;51.798;21.588;2023-03-13T10:30:46;99064.04;;;14.23;50.22
57791;BME280;43621;51.798;21.588;2023-03-13T10:34:55;99059.91;;;14.39;50.24
57791;BME280;43621;51.798;21.588;2023-03-13T10:38:57;99057.15;;;14.35;49.66
57791;BME280;43621;51.798;21.588;2023-03-13T10:43:02;99046.77;;;14.00;49.96
57791;BME280;43621;51.798;21.588;2023-03-13T10:47:05;99046.60;;;13.61;49.99
57791;BME280;43621;51.798;21.588;2023-03-13T10:51:20;99036.83;;;13.27;50.66
57791;BME280;43621;51.798;21.588;2023-03-13T10:55:24;99043.81;;;13.14;50.85
57791;BME280;43621;51.798;21.588;2023-03-13T10:59:26;99043.35;;;13.13;50.94
57791;BME280;43621;51.798;21.588;2023-03-13T11:03:30;99029.94;;;13.02;51.10
57791;BME280;43621;51.798;21.588;2023-03-13T11:07:36;99013.13;;;13.02;51.58
57791;BME280;43621;51.798;21.588;2023-03-13T11:11:52;98994.36;;;13.06;51.32
57791;BME280;43621;51.798;21.588;2023-03-13T11:15:57;98981.55;;;13.03;51.40
57791;BME280;43621;51.798;21.588;2023-03-13T11:20:04;98978.53;;;13.24;51.65
57791;BME280;43621;51.798;21.588;2023-03-13T11:24:14;98973.02;;;13.34;51.26
57791;BME280;43621;51.798;21.588;2023-03-13T11:28:29;98970.52;;;13.26;51.22
57791;BME280;43621;51.798;21.588;2023-03-13T11:32:46;98973.47;;;13.12;51.28
57791;BME280;43621;51.798;21.588;2023-03-13T11:54:44;98929.97;;;13.21;51.65
57791;BME280;43621;51.798;21.588;2023-03-13T12:08:09;98880.90;;;14.74;50.53
57791;BME280;43621;51.798;21.588;2023-03-13T12:16:47;98867.73;;;15.20;48.43
57791;BME280;43621;51.798;21.588;2023-03-13T12:21:22;98866.23;;;15.19;48.60
57791;BME280;43621;51.798;21.588;2023-03-13T12:25:27;98856.73;;;15.07;48.86
57791;BME280;43621;51.798;21.588;2023-03-13T12:29:39;98854.77;;;14.67;48.85
57791;BME280;43621;51.798;21.588;2023-03-13T12:38:22;98860.82;;;13.90;49.63
57791;BME280;43621;51.798;21.588;2023-03-13T12:46:44;98855.48;;;13.51;50.60
57791;BME280;43621;51.798;21.588;2023-03-13T12:59:40;98844.41;;;12.93;51.82
57791;BME280;43621;51.798;21.588;2023-03-13T13:08:23;98832.02;;;12.56;52.83
57791;BME280;43621;51.798;21.588;2023-03-13T13:12:25;98821.60;;;12.46;53.32
57791;BME280;43621;51.798;21.588;2023-03-13T13:16:28;98813.39;;;12.46;53.78
57791;BME280;43621;51.798;21.588;2023-03-13T13:20:34;98801.91;;;12.48;54.09
57791;BME280;43621;51.798;21.588;2023-03-13T13:24:48;98799.56;;;12.47;54.15
57791;BME280;43621;51.798;21.588;2023-03-13T13:28:51;98799.32;;;12.36;54.29
57791;BME280;43621;51.798;21.588;2023-03-13T13:32:55;98795.17;;;12.21;54.58
57791;BME280;43621;51.798;21.588;2023-03-13T13:36:59;98791.25;;;12.07;54.89
57791;BME280;43621;51.798;21.588;2023-03-13T13:49:18;98792.79;;;11.67;55.67
57791;BME280;43621;51.798;21.588;2023-03-13T13:53:41;98796.92;;;11.57;56.28
57791;BME280;43621;51.798;21.588;2023-03-13T13:57:43;98796.73;;;11.48;56.64
57791;BME280;43621;51.798;21.588;2023-03-13T14:01:50;98796.27;;;11.43;57.04
57791;BME280;43621;51.798;21.588;2023-03-13T14:06:27;98796.52;;;11.37;57.63
57791;BME280;43621;51.798;21.588;2023-03-13T14:15:19;98787.63;;;11.22;58.64
57791;BME280;43621;51.798;21.588;2023-03-13T14:19:26;98784.59;;;11.17;59.08
57791;BME280;43621;51.798;21.588;2023-03-13T14:27:31;98773.45;;;11.04;59.83
57791;BME280;43621;51.798;21.588;2023-03-13T14:31:36;98773.77;;;10.94;60.41
57791;BME280;43621;51.798;21.588;2023-03-13T14:35:39;98772.07;;;10.82;60.76
57791;BME280;43621;51.798;21.588;2023-03-13T14:39:43;98776.44;;;10.72;60.86
57791;BME280;43621;51.798;21.588;2023-03-13T14:43:45;98769.38;;;10.61;61.11
57791;BME280;43621;51.798;21.588;2023-03-13T14:47:50;98755.25;;;10.53;61.49
57791;BME280;43621;51.798;21.588;2023-03-13T14:52:12;98745.33;;;10.47;62.16
57791;BME280;43621;51.798;21.588;2023-03-13T14:56:16;98733.00;;;10.38;63.08
57791;BME280;43621;51.798;21.588;2023-03-13T15:00:41;98739.48;;;10.30;63.35
57791;BME280;43621;51.798;21.588;2023-03-13T15:05:00;98742.98;;;10.25;63.28
57791;BME280;43621;51.798;21.588;2023-03-13T15:13:25;98730.56;;;10.14;64.30
57791;BME280;43621;51.798;21.588;2023-03-13T15:17:29;98724.63;;;10.10;64.88
57791;BME280;43621;51.798;21.588;2023-03-13T15:21:32;98717.47;;;10.07;65.06
57791;BME280;43621;51.798;21.588;2023-03-13T15:25:35;98711.30;;;10.06;65.62
57791;BME280;43621;51.798;21.588;2023-03-13T15:29:37;98706.16;;;10.06;65.57
57791;BME280;43621;51.798;21.588;2023-03-13T15:33:39;98701.48;;;10.04;65.64
57791;BME280;43621;51.798;21.588;2023-03-13T15:37:42;98699.73;;;10.02;65.51
57791;BME280;43621;51.798;21.588;2023-03-13T15:41:44;98694.08;;;10.01;65.77
57791;BME280;43621;51.798;21.588;2023-03-13T15:45:47;98684.60;;;10.01;65.92
57791;BME280;43621;51.798;21.588;2023-03-13T15:49:52;98681.79;;;10.02;65.84
57791;BME280;43621;51.798;21.588;2023-03-13T15:53:54;98675.91;;;9.98;65.88
57791;BME280;43621;51.798;21.588;2023-03-13T15:57:55;98675.92;;;9.91;65.74
57791;BME280;43621;51.798;21.588;2023-03-13T16:01:57;98676.44;;;9.85;65.74
57791;BME280;43621;51.798;21.588;2023-03-13T16:05:59;98675.52;;;9.76;66.51
57791;BME280;43621;51.798;21.588;2023-03-13T16:10:02;98679.39;;;9.64;66.78
57791;BME280;43621;51.798;21.588;2023-03-13T16:14:04;98681.40;;;9.55;67.28
57791;BME280;43621;51.798;21.588;2023-03-13T16:18:10;98689.27;;;9.49;67.76
57791;BME280;43621;51.798;21.588;2023-03-13T16:22:15;98693.86;;;9.42;67.86
57791;BME280;43621;51.798;21.588;2023-03-13T16:26:23;98700.55;;;9.35;68.74
57791;BME280;43621;51.798;21.588;2023-03-13T16:30:31;98702.90;;;9.27;68.82
57791;BME280;43621;51.798;21.588;2023-03-13T16:34:33;98706.78;;;9.20;68.79
57791;BME280;43621;51.798;21.588;2023-03-13T16:38:35;98710.53;;;9.14;69.06
57791;BME280;43621;51.798;21.588;2023-03-13T16:42:36;98706.05;;;9.11;69.65
57791;BME280;43621;51.798;21.588;2023-03-13T16:46:40;98700.41;;;9.09;70.24
57791;BME280;43621;51.798;21.588;2023-03-13T16:50:42;98696.56;;;9.10;69.90
57791;BME280;43621;51.798;21.588;2023-03-13T16:54:47;98702.48;;;9.10;70.05
57791;BME280;43621;51.798;21.588;2023-03-13T16:58:49;98709.70;;;9.11;70.16
57791;BME280;43621;51.798;21.588;2023-03-13T17:02:52;98712.27;;;9.11;70.02
57791;BME280;43621;51.798;21.588;2023-03-13T17:06:54;98708.64;;;9.11;70.26
57791;BME280;43621;51.798;21.588;2023-03-13T17:10:56;98713.01;;;9.09;70.38
57791;BME280;43621;51.798;21.588;2023-03-13T17:14:57;98720.41;;;9.05;70.35
57791;BME280;43621;51.798;21.588;2023-03-13T17:19:00;98720.08;;;9.01;70.55
57791;BME280;43621;51.798;21.588;2023-03-13T17:23:02;98720.11;;;8.97;70.44
57791;BME280;43621;51.798;21.588;2023-03-13T17:27:09;98717.36;;;8.96;70.97
57791;BME280;43621;51.798;21.588;2023-03-13T17:31:12;98722.16;;;8.95;70.64
57791;BME280;43621;51.798;21.588;2023-03-13T17:35:14;98726.66;;;8.95;70.80
57791;BME280;43621;51.798;21.588;2023-03-13T17:39:16;98723.36;;;8.93;71.13
57791;BME280;43621;51.798;21.588;2023-03-13T17:43:18;98721.69;;;8.91;71.18
57791;BME280;43621;51.798;21.588;2023-03-13T17:47:21;98720.22;;;8.88;71.13
57791;BME280;43621;51.798;21.588;2023-03-13T17:51:27;98719.49;;;8.87;71.30
57791;BME280;43621;51.798;21.588;2023-03-13T17:55:29;98713.55;;;8.85;71.46
57791;BME280;43621;51.798;21.588;2023-03-13T17:59:31;98711.73;;;8.85;71.35
57791;BME280;43621;51.798;21.588;2023-03-13T18:03:33;98708.96;;;8.85;71.38
57791;BME280;43621;51.798;21.588;2023-03-13T18:07:35;98712.29;;;8.84;71.36
57791;BME280;43621;51.798;21.588;2023-03-13T18:11:38;98708.89;;;8.85;71.61
57791;BME280;43621;51.798;21.588;2023-03-13T18:15:40;98701.84;;;8.86;71.54
57791;BME280;43621;51.798;21.588;2023-03-13T18:19:42;98695.00;;;8.87;71.47
57791;BME280;43621;51.798;21.588;2023-03-13T18:23:44;98688.17;;;8.87;71.39
57791;BME280;43621;51.798;21.588;2023-03-13T18:27:46;98681.58;;;8.87;71.40
57791;BME280;43621;51.798;21.588;2023-03-13T18:31:48;98677.21;;;8.88;71.37
57791;BME280;43621;51.798;21.588;2023-03-13T18:35:51;98668.44;;;8.89;71.38
57791;BME280;43621;51.798;21.588;2023-03-13T18:39:53;98664.88;;;8.90;71.48
57791;BME280;43621;51.798;21.588;2023-03-13T18:43:56;98662.86;;;8.91;71.16
57791;BME280;43621;51.798;21.588;2023-03-13T18:47:58;98665.41;;;8.92;71.12
57791;BME280;43621;51.798;21.588;2023-03-13T18:52:00;98664.33;;;8.93;71.09
57791;BME280;43621;51.798;21.588;2023-03-13T18:56:11;98661.95;;;8.94;71.20
57791;BME280;43621;51.798;21.588;2023-03-13T19:00:21;98660.81;;;8.94;71.20
57791;BME280;43621;51.798;21.588;2023-03-13T19:04:24;98661.20;;;8.93;71.16
57791;BME280;43621;51.798;21.588;2023-03-13T19:08:26;98657.13;;;8.94;71.15
57791;BME280;43621;51.798;21.588;2023-03-13T19:12:28;98660.74;;;8.96;71.06
57791;BME280;43621;51.798;21.588;2023-03-13T19:16:49;98657.35;;;8.98;71.16
57791;BME280;43621;51.798;21.588;2023-03-13T19:20:53;98646.61;;;9.00;71.13
57791;BME280;43621;51.798;21.588;2023-03-13T19:24:55;98633.52;;;9.00;70.78
57791;BME280;43621;51.798;21.588;2023-03-13T19:28:57;98619.20;;;9.00;70.84
57791;BME280;43621;51.798;21.588;2023-03-13T19:32:59;98616.70;;;8.99;70.97
57791;BME280;43621;51.798;21.588;2023-03-13T19:37:01;98617.23;;;8.99;70.98
57791;BME280;43621;51.798;21.588;2023-03-13T19:41:04;98618.58;;;9.00;70.98
57791;BME280;43621;51.798;21.588;2023-03-13T19:45:06;98617.48;;;9.00;70.79
57791;BME280;43621;51.798;21.588;2023-03-13T19:49:14;98617.92;;;8.99;70.86
57791;BME280;43621;51.798;21.588;2023-03-13T19:53:17;98620.02;;;9.01;70.73
57791;BME280;43621;51.798;21.588;2023-03-13T19:57:18;98621.45;;;9.04;70.78
57791;BME280;43621;51.798;21.588;2023-03-13T20:01:20;98629.28;;;9.06;70.79
57791;BME280;43621;51.798;21.588;2023-03-13T20:05:24;98630.95;;;9.08;70.59
57791;BME280;43621;51.798;21.588;2023-03-13T20:09:27;98631.55;;;9.10;70.60
57791;BME280;43621;51.798;21.588;2023-03-13T20:13:29;98625.75;;;9.11;70.59
57791;BME280;43621;51.798;21.588;2023-03-13T20:17:31;98621.65;;;9.09;70.46
57791;BME280;43621;51.798;21.588;2023-03-13T20:21:35;98624.78;;;9.07;70.25
57791;BME280;43621;51.798;21.588;2023-03-13T20:25:37;98628.34;;;9.04;70.26
57791;BME280;43621;51.798;21.588;2023-03-13T20:29:39;98633.00;;;9.03;70.47
57791;BME280;43621;51.798;21.588;2023-03-13T20:33:42;98635.42;;;9.02;70.45
57791;BME280;43621;51.798;21.588;2023-03-13T20:37:44;98634.11;;;9.03;70.42
57791;BME280;43621;51.798;21.588;2023-03-13T20:41:46;98633.37;;;9.01;70.64
57791;BME280;43621;51.798;21.588;2023-03-13T20:45:48;98628.18;;;8.98;70.48
57791;BME280;43621;51.798;21.588;2023-03-13T20:49:50;98631.92;;;8.95;70.50
57791;BME280;43621;51.798;21.588;2023-03-13T20:53:52;98630.56;;;8.94;70.70
57791;BME280;43621;51.798;21.588;2023-03-13T20:57:54;98629.93;;;8.91;70.77
57791;BME280;43621;51.798;21.588;2023-03-13T21:01:56;98623.31;;;8.89;70.87
57791;BME280;43621;51.798;21.588;2023-03-13T21:05:58;98624.59;;;8.89;70.89
57791;BME280;43621;51.798;21.588;2023-03-13T21:09:59;98617.84;;;8.89;70.77
57791;BME280;43621;51.798;21.588;2023-03-13T21:14:01;98617.17;;;8.89;70.86
57791;BME280;43621;51.798;21.588;2023-03-13T21:18:03;98619.07;;;8.88;70.91
57791;BME280;43621;51.798;21.588;2023-03-13T21:22:05;98613.52;;;8.88;70.78
57791;BME280;43621;51.798;21.588;2023-03-13T21:26:07;98610.71;;;8.88;70.73
57791;BME280;43621;51.798;21.588;2023-03-13T21:30:12;98612.94;;;8.89;70.40
57791;BME280;43621;51.798;21.588;2023-03-13T21:34:15;98613.39;;;8.90;70.31
57791;BME280;43621;51.798;21.588;2023-03-13T21:38:17;98605.43;;;8.91;70.27
57791;BME280;43621;51.798;21.588;2023-03-13T21:42:19;98604.77;;;8.92;70.07
57791;BME280;43621;51.798;21.588;2023-03-13T21:46:21;98595.55;;;8.92;69.88
57791;BME280;43621;51.798;21.588;2023-03-13T21:50:24;98593.95;;;8.91;69.70
57791;BME280;43621;51.798;21.588;2023-03-13T21:54:26;98594.47;;;8.89;69.47
57791;BME280;43621;51.798;21.588;2023-03-13T21:58:28;98590.68;;;8.89;69.40
57791;BME280;43621;51.798;21.588;2023-03-13T22:02:30;98586.09;;;8.90;69.25
57791;BME280;43621;51.798;21.588;2023-03-13T22:06:33;98584.75;;;8.91;69.19
57791;BME280;43621;51.798;21.588;2023-03-13T22:10:36;98589.38;;;8.93;68.82
57791;BME280;43621;51.798;21.588;2023-03-13T22:14:40;98588.30;;;8.93;68.73
57791;BME280;43621;51.798;21.588;2023-03-13T22:18:42;98584.41;;;8.92;68.73
57791;BME280;43621;51.798;21.588;2023-03-13T22:22:44;98573.95;;;8.89;68.40
57791;BME280;43621;51.798;21.588;2023-03-13T22:26:46;98570.80;;;8.89;68.29
57791;BME280;43621;51.798;21.588;2023-03-13T22:30:48;98566.31;;;8.87;68.01
57791;BME280;43621;51.798;21.588;2023-03-13T22:34:50;98556.73;;;8.83;67.61
57791;BME280;43621;51.798;21.588;2023-03-13T22:38:52;98547.03;;;8.79;67.49
57791;BME280;43621;51.798;21.588;2023-03-13T22:42:53;98548.11;;;8.79;67.33
57791;BME280;43621;51.798;21.588;2023-03-13T22:46:55;98538.68;;;8.78;67.12
57791;BME280;43621;51.798;21.588;2023-03-13T22:50:59;98544.45;;;8.74;67.07
57791;BME280;43621;51.798;21.588;2023-03-13T22:55:01;98540.31;;;8.72;66.72
57791;BME280;43621;51.798;21.588;2023-03-13T22:59:03;98536.27;;;8.71;66.45
57791;BME280;43621;51.798;21.588;2023-03-13T23:03:06;98536.42;;;8.73;66.46
57791;BME280;43621;51.798;21.588;2023-03-13T23:07:08;98529.39;;;8.72;66.21
57791;BME280;43621;51.798;21.588;2023-03-13T23:11:10;98526.80;;;8.66;65.77
57791;BME280;43621;51.798;21.588;2023-03-13T23:15:12;98523.61;;;8.62;65.49
57791;BME280;43621;51.798;21.588;2023-03-13T23:19:15;98521.52;;;8.57;65.35